createdAt,value
2022-12-04T00:01:06.513Z,81.70
2022-12-04T00:04:10.069Z,85.00
2022-12-04T00:07:12.911Z,94.40
2022-12-04T00:10:15.882Z,93.20
2022-12-04T00:13:19.509Z,89.70
2022-12-04T00:16:28.188Z,86.10
2022-12-04T00:19:37.924Z,93.50
2022-12-04T00:22:40.906Z,92.10
2022-12-04T00:25:48.660Z,87.00
2022-12-04T00:28:57.788Z,75.80
2022-12-04T00:32:00.832Z,72.50
2022-12-04T00:35:03.859Z,91.10
2022-12-04T00:38:06.910Z,89.40
2022-12-04T00:41:15.755Z,76.20
2022-12-04T00:47:24.542Z,72.30
2022-12-04T00:50:27.469Z,81.00
2022-12-04T00:53:30.271Z,86.60
2022-12-04T00:56:33.311Z,75.40
2022-12-04T00:59:38.080Z,72.00
2022-12-04T01:02:41.112Z,77.80
2022-12-04T01:05:45.961Z,93.00
2022-12-04T01:08:50.101Z,92.30
2022-12-04T01:11:53.068Z,81.30
2022-12-04T01:14:56.062Z,72.50
2022-12-04T01:17:59.192Z,82.80
2022-12-04T01:21:02.080Z,91.70
2022-12-04T01:24:05.899Z,93.60
2022-12-04T01:27:09.045Z,82.10
2022-12-04T01:30:12.595Z,78.10
2022-12-04T01:33:15.621Z,84.20
2022-12-04T01:36:25.833Z,92.70
2022-12-04T01:39:29.094Z,96.80
2022-12-04T01:42:32.028Z,85.70
2022-12-04T01:46:02.670Z,81.70
2022-12-04T01:49:21.536Z,85.20
2022-12-04T01:52:26.674Z,96.80
2022-12-04T01:55:30.958Z,96.40
2022-12-04T01:58:39.681Z,80.90
2022-12-04T02:01:49.462Z,82.60
2022-12-04T02:04:53.541Z,85.90
2022-12-04T02:08:01.614Z,92.40
2022-12-04T02:11:47.102Z,95.80
2022-12-04T02:15:04.520Z,86.60
2022-12-04T02:18:16.867Z,81.00
2022-12-04T02:21:36.409Z,82.20
2022-12-04T02:25:08.879Z,92.40
2022-12-04T02:28:23.098Z,98.70
2022-12-04T02:31:37.294Z,81.20
2022-12-04T02:35:10.913Z,79.80
2022-12-04T02:38:27.341Z,82.20
2022-12-04T02:41:42.233Z,95.00
2022-12-04T02:44:49.772Z,92.80
2022-12-04T02:47:54.682Z,78.00
2022-12-04T02:51:01.764Z,79.10
2022-12-04T02:54:36.268Z,71.70
2022-12-04T02:57:45.431Z,104.80
2022-12-04T03:00:50.676Z,84.50
2022-12-04T03:03:56.568Z,80.40
2022-12-04T03:07:05.663Z,81.10
2022-12-04T03:10:23.806Z,92.50
2022-12-04T03:13:36.398Z,93.00
2022-12-04T03:16:41.490Z,97.90
2022-12-04T03:19:51.655Z,90.70
2022-12-04T03:23:03.324Z,84.00
2022-12-04T03:26:09.308Z,77.40
2022-12-04T03:29:19.300Z,97.10
2022-12-04T03:32:35.052Z,95.00
2022-12-04T03:36:01.446Z,88.50
2022-12-04T03:39:25.233Z,86.10
2022-12-04T03:42:38.896Z,79.60
2022-12-04T03:45:57.573Z,88.70
2022-12-04T03:49:19.100Z,80.70
2022-12-04T03:52:37.018Z,75.30
2022-12-04T03:55:49.837Z,81.00
2022-12-04T03:59:00.874Z,87.20
2022-12-04T04:02:05.538Z,89.20
2022-12-04T04:05:11.363Z,81.70
2022-12-04T04:08:26.383Z,73.40
2022-12-04T04:11:34.424Z,80.60
2022-12-04T04:15:08.680Z,91.50
2022-12-04T04:18:30.500Z,84.00
2022-12-04T04:21:55.220Z,82.50
2022-12-04T04:25:04.301Z,74.40
2022-12-04T04:28:32.356Z,80.10
2022-12-04T04:31:42.036Z,91.40
2022-12-04T04:34:52.890Z,83.90
2022-12-04T04:38:14.488Z,76.90
2022-12-04T04:41:33.432Z,79.50
2022-12-04T04:44:52.987Z,82.60
2022-12-04T04:48:03.271Z,88.20
2022-12-04T04:51:06.855Z,90.80
2022-12-04T04:54:13.615Z,86.20
2022-12-04T04:57:28.119Z,76.90
2022-12-04T05:00:31.169Z,84.20
2022-12-04T05:03:34.450Z,92.40
2022-12-04T05:06:37.344Z,87.50
2022-12-04T05:09:41.523Z,75.20
2022-12-04T05:12:44.450Z,83.60
2022-12-04T05:16:19.733Z,77.90
2022-12-04T05:19:41.218Z,83.60
2022-12-04T05:22:44.093Z,89.50
2022-12-04T05:25:46.991Z,78.30
2022-12-04T05:28:49.871Z,72.40
2022-12-04T05:31:52.660Z,81.30
2022-12-04T05:34:56.747Z,90.50
2022-12-04T05:37:59.564Z,86.00
2022-12-04T05:41:05.293Z,84.10
2022-12-04T05:44:08.155Z,75.00
2022-12-04T05:47:27.627Z,80.40
2022-12-04T05:50:30.566Z,79.30
2022-12-04T05:53:33.581Z,80.50
2022-12-04T05:56:37.438Z,80.60
2022-12-04T05:59:44.555Z,73.60
2022-12-04T06:02:47.687Z,70.80
2022-12-04T06:06:21.090Z,77.00
2022-12-04T06:09:24.558Z,92.80
2022-12-04T06:12:27.486Z,69.30
2022-12-04T06:15:30.365Z,72.60
2022-12-04T06:18:33.148Z,76.40
2022-12-04T06:21:38.354Z,76.80
2022-12-04T06:24:41.366Z,83.30
2022-12-04T06:27:44.536Z,75.40
2022-12-04T06:30:47.424Z,69.60
2022-12-04T06:33:50.273Z,74.60
2022-12-04T06:36:53.104Z,82.30
2022-12-04T06:39:56.223Z,78.50
2022-12-04T06:42:59.471Z,67.90
2022-12-04T06:46:08.392Z,71.10
2022-12-04T06:49:11.312Z,76.30
2022-12-04T06:52:14.107Z,79.70
2022-12-04T06:55:17.000Z,79.20
2022-12-04T06:58:19.780Z,74.00
2022-12-04T07:01:25.728Z,70.10
2022-12-04T07:04:28.664Z,66.70
2022-12-04T07:07:31.605Z,78.80
2022-12-04T07:10:36.667Z,80.80
2022-12-04T07:13:39.648Z,75.30
2022-12-04T07:16:43.091Z,71.60
2022-12-04T07:19:46.186Z,77.40
2022-12-04T07:22:49.048Z,82.40
2022-12-04T07:25:52.157Z,76.00
2022-12-04T07:28:56.226Z,73.70
2022-12-04T07:31:59.130Z,65.10
2022-12-04T07:35:02.651Z,66.30
2022-12-04T07:38:05.501Z,71.00
2022-12-04T07:41:10.927Z,74.90
2022-12-04T07:44:13.794Z,66.90
2022-12-04T07:47:16.672Z,69.00
2022-12-04T07:50:19.609Z,63.50
2022-12-04T07:53:22.402Z,74.80
2022-12-04T07:56:25.547Z,72.30
2022-12-04T07:59:28.433Z,73.00
2022-12-04T08:02:34.979Z,58.90
2022-12-04T08:05:39.877Z,63.60
2022-12-04T08:08:42.956Z,76.50
2022-12-04T08:11:46.067Z,69.60
2022-12-04T08:14:50.288Z,69.50
2022-12-04T08:17:53.182Z,66.00
2022-12-04T08:21:06.899Z,71.40
2022-12-04T08:24:09.841Z,81.20
2022-12-04T08:27:12.870Z,75.50
2022-12-04T08:30:16.489Z,66.30
2022-12-04T08:33:19.494Z,60.60
2022-12-04T08:36:23.067Z,64.90
2022-12-04T08:39:27.015Z,75.90
2022-12-04T08:42:29.797Z,74.00
2022-12-04T08:45:35.285Z,73.40
2022-12-04T08:48:45.669Z,66.00
2022-12-04T08:51:48.725Z,64.90
2022-12-04T08:54:51.645Z,75.80
2022-12-04T08:57:55.056Z,66.70
2022-12-04T09:01:07.074Z,70.40
2022-12-04T09:04:10.094Z,63.90
2022-12-04T09:07:31.568Z,63.70
2022-12-04T09:10:44.774Z,69.20
2022-12-04T09:13:49.030Z,78.00
2022-12-04T09:16:53.759Z,67.20
2022-12-04T09:20:16.721Z,65.00
2022-12-04T09:23:20.041Z,68.10
2022-12-04T09:26:32.710Z,76.60
2022-12-04T09:29:35.716Z,72.90
2022-12-04T09:32:39.318Z,69.80
2022-12-04T09:35:42.217Z,70.60
2022-12-04T09:38:47.988Z,68.00
2022-12-04T09:42:03.064Z,77.10
2022-12-04T09:45:13.185Z,76.90
2022-12-04T09:48:19.565Z,72.80
2022-12-04T09:51:24.025Z,63.50
2022-12-04T09:54:39.270Z,65.00
2022-12-04T09:57:51.251Z,76.50
2022-12-04T10:00:55.767Z,61.10
2022-12-04T10:04:05.642Z,79.50
2022-12-04T10:07:25.763Z,69.70
2022-12-04T10:10:43.186Z,69.50
2022-12-04T10:14:31.048Z,75.90
2022-12-04T10:17:43.866Z,68.00
2022-12-04T10:20:55.814Z,66.70
2022-12-04T10:24:23.872Z,69.70
2022-12-04T10:27:32.832Z,72.00
2022-12-04T10:30:38.895Z,74.30
2022-12-04T10:33:51.407Z,81.20
2022-12-04T10:37:07.374Z,65.40
2022-12-04T10:40:21.897Z,61.10
2022-12-04T10:43:32.238Z,63.20
2022-12-04T10:46:36.046Z,69.60
2022-12-04T10:49:40.252Z,71.90
2022-12-04T10:52:43.700Z,72.00
2022-12-04T10:55:47.177Z,64.60
2022-12-04T10:58:58.238Z,62.00
2022-12-04T11:02:20.383Z,63.20
2022-12-04T11:05:30.337Z,76.40
2022-12-04T11:08:42.000Z,67.10
2022-12-04T11:11:45.139Z,57.70
2022-12-04T11:14:48.148Z,59.10
2022-12-04T11:17:53.012Z,64.60
2022-12-04T11:21:04.932Z,63.90
2022-12-04T11:24:21.223Z,60.70
2022-12-04T11:27:32.181Z,61.40
2022-12-04T11:30:37.572Z,61.80
2022-12-04T11:33:47.048Z,64.20
2022-12-04T11:36:55.253Z,72.40
2022-12-04T11:39:59.372Z,57.70
2022-12-04T11:43:07.720Z,64.20
2022-12-04T11:46:21.929Z,61.10
2022-12-04T11:49:27.959Z,66.90
2022-12-04T11:52:44.349Z,70.40
2022-12-04T11:55:59.600Z,55.20
2022-12-04T11:59:02.389Z,61.80
2022-12-04T12:02:34.300Z,60.20
2022-12-04T12:06:26.220Z,64.00
2022-12-04T12:09:57.295Z,61.90
2022-12-04T12:13:12.515Z,58.10
2022-12-04T12:16:35.259Z,55.40
2022-12-04T12:20:16.122Z,56.90
2022-12-04T12:23:40.981Z,61.30
2022-12-04T12:26:56.123Z,60.70
2022-12-04T12:30:07.340Z,64.00
2022-12-04T12:33:18.687Z,56.20
2022-12-04T12:36:26.729Z,58.50
2022-12-04T12:39:40.820Z,60.10
2022-12-04T12:43:12.574Z,60.80
2022-12-04T12:46:22.928Z,56.20
2022-12-04T12:49:50.182Z,51.10
2022-12-04T12:52:59.149Z,55.00
2022-12-04T12:59:18.312Z,56.70
2022-12-04T13:02:33.963Z,54.80
2022-12-04T13:05:44.911Z,56.00
2022-12-04T13:09:19.389Z,50.90
2022-12-04T13:12:24.189Z,58.80
2022-12-04T13:15:54.691Z,58.60
2022-12-04T13:19:12.523Z,52.10
2022-12-04T13:22:34.898Z,50.80
2022-12-04T13:26:06.995Z,58.50
2022-12-04T13:29:41.194Z,59.60
2022-12-04T13:32:53.197Z,57.40
2022-12-04T13:36:18.368Z,55.10
2022-12-04T13:39:48.216Z,50.30
2022-12-04T13:43:21.721Z,46.40
2022-12-04T13:46:41.311Z,56.60
2022-12-04T13:49:48.724Z,57.60
2022-12-04T13:52:55.566Z,53.60
2022-12-04T13:56:04.434Z,53.20
2022-12-04T13:59:32.675Z,54.40
2022-12-04T14:02:38.146Z,53.50
2022-12-04T14:05:43.624Z,47.90
2022-12-04T14:08:46.917Z,53.30
2022-12-04T14:11:56.988Z,51.60
2022-12-04T14:15:07.780Z,59.20
2022-12-04T14:18:14.274Z,53.20
2022-12-04T14:21:17.496Z,52.80
2022-12-04T14:24:38.304Z,46.70
2022-12-04T14:27:41.539Z,48.10
2022-12-04T14:30:45.530Z,50.30
2022-12-04T14:33:52.595Z,55.90
2022-12-04T14:36:59.528Z,51.40
2022-12-04T14:40:07.704Z,50.90
2022-12-04T14:43:20.051Z,53.40
2022-12-04T14:46:52.129Z,59.60
2022-12-04T14:50:15.418Z,53.90
2022-12-04T14:53:43.117Z,54.00
2022-12-04T14:57:23.792Z,49.60
2022-12-04T15:00:26.979Z,53.10
2022-12-04T15:03:34.622Z,54.20
2022-12-04T15:06:41.960Z,55.20
2022-12-04T15:10:12.032Z,55.80
2022-12-04T15:13:27.753Z,48.50
2022-12-04T15:16:30.774Z,50.80
2022-12-04T15:19:33.729Z,52.40
2022-12-04T15:22:36.890Z,54.20
2022-12-04T15:25:50.899Z,51.90
2022-12-04T15:29:03.371Z,48.70
2022-12-04T15:32:12.074Z,48.90
2022-12-04T15:35:29.786Z,50.90
2022-12-04T15:38:33.660Z,58.20
2022-12-04T15:41:42.900Z,51.70
2022-12-04T15:44:52.644Z,51.30
2022-12-04T15:47:55.961Z,51.50
2022-12-04T15:51:03.536Z,50.20
2022-12-04T15:54:26.647Z,57.30
2022-12-04T15:57:34.597Z,50.00
2022-12-04T16:00:40.253Z,47.90
2022-12-04T16:03:43.244Z,49.60
2022-12-04T16:06:48.494Z,53.50
2022-12-04T16:10:02.848Z,62.40
2022-12-04T16:13:06.750Z,49.10
2022-12-04T16:16:17.573Z,49.60
2022-12-04T16:19:26.273Z,50.80
2022-12-04T16:22:30.192Z,43.70
2022-12-04T16:25:33.256Z,53.50
2022-12-04T16:28:36.223Z,51.60
2022-12-04T16:31:39.257Z,51.70
2022-12-04T16:34:42.242Z,47.30
2022-12-04T16:37:46.709Z,50.60
2022-12-04T16:40:49.566Z,50.10
2022-12-04T16:43:56.850Z,41.50
2022-12-04T16:46:59.753Z,49.50
2022-12-04T16:50:02.790Z,49.90
2022-12-04T16:53:05.825Z,51.80
2022-12-04T16:56:09.498Z,54.20
2022-12-04T16:59:13.709Z,49.70
2022-12-04T17:02:24.058Z,51.00
2022-12-04T17:05:29.381Z,47.40
2022-12-04T17:08:33.170Z,51.80
2022-12-04T19:10:13.257Z,47.30
2022-12-04T19:17:02.289Z,41.10
2022-12-04T19:17:27.000Z,41.20
2022-12-04T19:20:32.188Z,37.90
2022-12-04T19:23:40.790Z,37.30
2022-12-04T19:26:46.402Z,45.00
2022-12-04T19:29:50.803Z,48.50
2022-12-04T19:32:56.041Z,36.80
2022-12-04T19:36:05.377Z,47.10
2022-12-04T19:39:11.039Z,41.90
2022-12-04T19:42:16.895Z,41.60
2022-12-04T19:45:21.370Z,45.80
2022-12-04T19:48:27.846Z,43.30
2022-12-04T19:56:30.279Z,41.30
2022-12-04T19:59:36.953Z,42.70
2022-12-04T20:02:40.796Z,39.30
2022-12-04T20:05:43.619Z,46.20
2022-12-04T20:08:47.234Z,43.10
2022-12-04T20:16:43.507Z,43.90
2022-12-04T20:19:46.523Z,44.90
2022-12-04T20:22:51.451Z,46.20
2022-12-04T20:25:54.912Z,43.50
2022-12-04T20:28:59.940Z,46.70
2022-12-04T20:32:02.859Z,45.60
2022-12-04T20:35:07.304Z,45.70
2022-12-04T20:38:10.243Z,43.60
2022-12-04T20:41:16.118Z,46.90
2022-12-04T20:49:21.744Z,45.20
2022-12-04T20:52:25.343Z,47.60
2022-12-04T20:55:57.510Z,98.30
2022-12-04T20:59:04.985Z,58.90
2022-12-04T21:02:07.863Z,49.10
2022-12-04T21:05:10.811Z,54.70
2022-12-04T21:08:14.860Z,50.30
2022-12-04T21:11:17.794Z,49.00
2022-12-04T21:14:43.605Z,49.60
2022-12-04T21:17:46.531Z,44.00
2022-12-04T21:20:49.392Z,53.60
2022-12-04T21:23:52.536Z,47.00
2022-12-04T21:31:50.919Z,49.30
2022-12-04T21:34:55.882Z,44.50
2022-12-04T21:38:00.648Z,46.80
2022-12-04T21:41:09.230Z,45.30
2022-12-04T21:44:16.627Z,52.00
2022-12-04T21:57:20.900Z,49.40
2022-12-04T22:00:23.872Z,45.90
2022-12-04T22:03:26.731Z,47.80
2022-12-04T22:10:53.089Z,48.70
2022-12-04T22:13:56.193Z,40.60
2022-12-04T22:17:00.208Z,44.30
2022-12-04T22:20:03.781Z,48.00
2022-12-04T22:33:09.028Z,47.30
2022-12-04T22:36:16.117Z,50.10
2022-12-04T22:40:10.621Z,49.60
2022-12-04T22:43:13.441Z,45.50
2022-12-04T22:46:16.987Z,45.80
2022-12-04T22:49:20.087Z,50.30
2022-12-04T22:52:23.219Z,59.30
2022-12-04T22:55:26.053Z,49.10
2022-12-04T22:58:28.920Z,48.40
2022-12-04T23:01:34.443Z,52.40
2022-12-04T23:04:37.508Z,49.10
2022-12-04T23:07:40.716Z,45.50
2022-12-04T23:10:43.726Z,46.90
2022-12-04T23:13:55.484Z,44.90
2022-12-04T23:16:58.557Z,54.50
2022-12-04T23:20:01.381Z,45.90
2022-12-04T23:23:04.249Z,43.80
2022-12-04T23:26:16.622Z,45.70
2022-12-04T23:29:50.938Z,47.00
2022-12-04T23:32:45.220Z,49.40
2022-12-04T23:35:57.194Z,42.80
2022-12-04T23:39:00.275Z,52.60
2022-12-04T23:42:03.512Z,51.50
2022-12-04T23:45:08.034Z,49.50
2022-12-04T23:48:11.414Z,45.70
2022-12-04T23:51:17.686Z,43.30
2022-12-04T23:54:20.858Z,52.10
2022-12-04T23:57:23.941Z,47.20
